Time;durP1;ratioP1;P1;durP2;ratioP2;P2;SDS_P1;SDS_P2;PMS_P1;PMS_P2;Temp;Humidity;BMP_temperature;BMP_pressure;BME280_temperature;BME280_humidity;BME280_pressure;Samples;Min_cycle;Max_cycle;Signal;HPM_P1;HPM_P2
2022/12/14 00:00:37;;;;;;;45.23;24.00;;;-4.10;99.90;;;;;;5102713;27;20035;-74
2022/12/14 00:03:03;;;;;;;49.33;24.63;;;-4.20;99.90;;;;;;5112316;27;20035;-74
2022/12/14 00:05:28;;;;;;;48.87;23.73;;;-4.20;99.90;;;;;;5091234;27;20118;-74
2022/12/14 00:07:54;;;;;;;43.97;23.40;;;-4.20;99.90;;;;;;5104312;27;20036;-74
2022/12/14 00:10:19;;;;;;;47.23;24.83;;;-4.20;99.90;;;;;;5111650;27;20092;-74
2022/12/14 00:12:45;;;;;;;44.77;23.87;;;-4.20;99.90;;;;;;5113654;27;20032;-74
2022/12/14 00:15:11;;;;;;;44.57;23.33;;;-4.20;99.90;;;;;;5106232;27;20031;-74
2022/12/14 00:17:36;;;;;;;44.90;24.13;;;-4.20;99.90;;;;;;5096415;28;20069;-74
2022/12/14 00:20:02;;;;;;;43.17;23.40;;;-4.20;99.90;;;;;;5103846;28;20428;-74
2022/12/14 00:22:28;;;;;;;46.90;25.07;;;-4.20;99.90;;;;;;5107157;27;20031;-74
2022/12/14 00:24:53;;;;;;;45.83;23.10;;;-4.20;99.90;;;;;;5109444;28;20501;-74
2022/12/14 00:27:19;;;;;;;44.70;24.07;;;-4.30;99.90;;;;;;5101084;27;20035;-74
2022/12/14 00:29:44;;;;;;;44.60;23.73;;;-4.30;99.90;;;;;;5101608;27;20043;-74
2022/12/14 00:32:10;;;;;;;41.07;22.13;;;-4.30;99.90;;;;;;5107062;27;20046;-74
2022/12/14 00:34:35;;;;;;;45.70;24.07;;;-4.40;99.90;;;;;;5108942;27;20027;-74
2022/12/14 00:37:01;;;;;;;45.13;24.43;;;-4.40;99.90;;;;;;5100572;28;20035;-74
2022/12/14 00:39:26;;;;;;;40.90;21.17;;;-4.50;99.90;;;;;;5112324;27;20038;-73
2022/12/14 00:41:52;;;;;;;40.50;22.90;;;-4.50;99.90;;;;;;5108111;27;20081;-74
2022/12/14 00:44:17;;;;;;;42.83;23.23;;;-4.60;99.90;;;;;;5106225;27;20045;-74
2022/12/14 00:46:43;;;;;;;42.70;23.07;;;-4.60;99.90;;;;;;5110723;27;20602;-74
2022/12/14 00:49:09;;;;;;;37.50;21.37;;;-4.70;99.90;;;;;;5104324;27;20039;-73
2022/12/14 00:51:35;;;;;;;38.40;21.20;;;-4.70;99.90;;;;;;5082518;28;20056;-73
2022/12/14 00:54:00;;;;;;;38.87;21.53;;;-4.80;99.90;;;;;;5108856;27;20051;-73
2022/12/14 00:56:26;;;;;;;36.77;21.17;;;-4.80;99.90;;;;;;5106566;27;20035;-74
2022/12/14 00:58:52;;;;;;;39.20;21.60;;;-4.90;99.90;;;;;;5101185;28;20035;-73
2022/12/14 01:01:19;;;;;;;41.63;21.60;;;-4.90;99.90;;;;;;5109078;27;20078;-73
2022/12/14 01:03:45;;;;;;;44.17;22.17;;;-5.00;99.90;;;;;;5124366;27;20453;-74
2022/12/14 01:06:21;;;;;;;40.10;22.23;;;-5.00;99.90;;;;;;5104973;27;20069;-73
2022/12/14 01:08:47;;;;;;;39.43;21.80;;;-5.00;99.90;;;;;;5109005;27;20638;-73
2022/12/14 01:11:13;;;;;;;38.07;21.43;;;-5.10;99.90;;;;;;5087671;27;20031;-73
2022/12/14 01:13:39;;;;;;;42.03;22.40;;;-5.10;99.90;;;;;;5089667;27;20405;-73
2022/12/14 01:16:08;;;;;;;40.20;21.27;;;-5.20;99.90;;;;;;5127272;27;20046;-73
2022/12/14 01:18:38;;;;;;;38.27;21.60;;;-5.30;99.90;;;;;;5105466;27;20402;-73
2022/12/14 01:21:15;;;;;;;42.27;23.10;;;-5.30;99.90;;;;;;5084532;28;20035;-73
2022/12/14 01:23:42;;;;;;;43.53;22.57;;;-5.30;99.90;;;;;;5102129;27;20042;-73
2022/12/14 01:26:08;;;;;;;40.83;20.67;;;-5.40;99.90;;;;;;5107356;27;20043;-73
2022/12/14 01:28:35;;;;;;;38.87;21.40;;;-5.50;99.90;;;;;;5106524;27;20038;-73
2022/12/14 01:31:08;;;;;;;41.33;21.53;;;-5.50;99.90;;;;;;5106465;28;20035;-73
2022/12/14 01:33:34;;;;;;;41.40;21.50;;;-5.60;99.90;;;;;;5105291;27;20420;-73
2022/12/14 01:36:09;;;;;;;41.10;21.47;;;-5.70;99.90;;;;;;5087101;27;20043;-73
2022/12/14 01:38:35;;;;;;;38.90;22.33;;;-5.70;99.90;;;;;;5118975;27;20036;-73
2022/12/14 01:41:01;;;;;;;42.10;21.67;;;-5.70;99.90;;;;;;5105409;27;20545;-72
2022/12/14 01:43:47;;;;;;;42.67;23.17;;;-5.70;99.90;;;;;;5110983;27;20110;-73
2022/12/14 01:46:16;;;;;;;41.13;22.27;;;-5.70;99.90;;;;;;5098367;27;20039;-72
2022/12/14 01:48:43;;;;;;;39.57;21.93;;;-5.70;99.90;;;;;;5105776;27;20518;-73
2022/12/14 01:51:08;;;;;;;43.73;22.40;;;-5.70;99.90;;;;;;5099939;28;20039;-73
2022/12/14 01:53:34;;;;;;;45.73;23.10;;;-5.80;99.90;;;;;;5105556;27;20054;-73
2022/12/14 01:56:00;;;;;;;41.83;22.93;;;-5.90;99.90;;;;;;5104072;28;20110;-73
2022/12/14 01:58:27;;;;;;;45.73;23.63;;;-6.00;99.90;;;;;;5103097;27;20067;-73
2022/12/14 02:00:56;;;;;;;41.23;23.07;;;-6.10;99.90;;;;;;5108953;28;20028;-72
2022/12/14 02:03:25;;;;;;;44.13;23.07;;;-6.10;99.90;;;;;;5110993;27;20346;-73
2022/12/14 02:05:59;;;;;;;42.90;22.53;;;-6.10;99.90;;;;;;5089979;27;20054;-72
2022/12/14 02:08:26;;;;;;;43.13;23.00;;;-6.10;99.90;;;;;;5105246;27;20378;-72
2022/12/14 02:10:53;;;;;;;43.80;22.73;;;-6.10;99.90;;;;;;5110461;27;20496;-73
2022/12/14 02:13:25;;;;;;;43.07;21.93;;;-6.10;99.90;;;;;;5110126;27;20036;-72
2022/12/14 02:15:51;;;;;;;43.13;22.23;;;-6.10;99.90;;;;;;5101831;27;20042;-72
2022/12/14 02:18:22;;;;;;;40.37;20.30;;;-6.10;99.90;;;;;;5107969;28;20043;-72
2022/12/14 02:21:17;;;;;;;44.47;22.87;;;-6.10;99.90;;;;;;5130199;27;20035;-72
2022/12/14 02:23:52;;;;;;;39.93;21.30;;;-6.10;99.90;;;;;;5104854;27;20130;-72
2022/12/14 02:26:35;;;;;;;42.80;21.40;;;-6.10;99.90;;;;;;5104602;28;20556;-72
2022/12/14 02:29:32;;;;;;;37.47;20.33;;;-6.20;99.90;;;;;;5107039;28;20051;-72
2022/12/14 02:32:09;;;;;;;39.90;21.33;;;-6.20;99.90;;;;;;5097094;28;20115;-72
2022/12/14 02:35:08;;;;;;;41.70;20.83;;;-6.20;99.90;;;;;;5096038;28;20035;-72
2022/12/14 02:37:44;;;;;;;42.20;22.27;;;-6.20;99.90;;;;;;5097226;28;20046;-73
2022/12/14 02:40:24;;;;;;;43.50;22.13;;;-6.10;99.90;;;;;;5080125;27;20051;-73
2022/12/14 02:43:14;;;;;;;41.90;21.63;;;-6.10;99.90;;;;;;5100885;28;20439;-72
2022/12/14 02:46:01;;;;;;;40.87;22.10;;;-6.10;99.90;;;;;;5113202;27;20088;-72
2022/12/14 02:48:35;;;;;;;44.63;22.43;;;-6.10;99.90;;;;;;5094699;28;20063;-72
2022/12/14 02:51:42;;;;;;;42.40;22.70;;;-6.10;99.90;;;;;;5107720;28;20027;-73
2022/12/14 02:54:15;;;;;;;45.27;22.97;;;-6.10;99.90;;;;;;5106529;28;20040;-73
2022/12/14 02:56:50;;;;;;;43.45;21.70;;;-6.10;99.90;;;;;;5107528;27;20104;-73
2022/12/14 02:59:17;;;;;;;38.57;20.87;;;-6.20;99.90;;;;;;5112359;27;20078;-72
2022/12/14 03:01:45;;;;;;;38.53;20.97;;;-6.20;99.90;;;;;;5113078;27;20031;-71
2022/12/14 03:04:10;;;;;;;43.83;21.30;;;-6.20;99.90;;;;;;5116294;27;20114;-72
2022/12/14 03:06:36;;;;;;;39.27;21.43;;;-6.20;99.90;;;;;;5113957;27;20563;-72
2022/12/14 03:09:06;;;;;;;43.27;20.30;;;-6.30;99.90;;;;;;5111206;27;20186;-72
2022/12/14 03:11:54;;;;;;;40.27;21.53;;;-6.30;99.90;;;;;;5125784;27;20524;-72
2022/12/14 03:14:22;;;;;;;40.23;21.37;;;-6.30;99.90;;;;;;5114530;27;20043;-72
2022/12/14 03:16:52;;;;;;;47.47;22.67;;;-6.30;99.90;;;;;;5111474;27;20110;-72
2022/12/14 03:19:24;;;;;;;46.03;21.90;;;-6.40;99.90;;;;;;5102916;27;20049;-72
2022/12/14 03:21:57;;;;;;;42.40;21.13;;;-6.40;99.90;;;;;;5113070;27;20519;-72
2022/12/14 03:24:30;;;;;;;48.05;21.67;;;-6.40;99.90;;;;;;5111031;27;20039;-72
2022/12/14 03:27:01;;;;;;;38.67;19.93;;;-6.40;99.90;;;;;;5110250;27;20496;-71
2022/12/14 03:29:31;;;;;;;42.90;21.47;;;-6.40;99.90;;;;;;5114412;27;20043;-73
2022/12/14 03:32:09;;;;;;;41.60;21.40;;;-6.40;99.90;;;;;;5093772;27;20495;-73
2022/12/14 03:34:42;;;;;;;40.33;21.27;;;-6.40;99.90;;;;;;5118678;27;20031;-73
2022/12/14 03:37:07;;;;;;;36.85;20.02;;;-6.50;99.90;;;;;;5083999;27;20047;-73
2022/12/14 03:39:34;;;;;;;42.67;21.23;;;-6.50;99.90;;;;;;5105880;28;20084;-72
2022/12/14 03:42:06;;;;;;;43.00;21.40;;;-6.50;99.90;;;;;;5110439;27;20162;-73
2022/12/14 03:44:37;;;;;;;44.80;21.57;;;-6.50;99.90;;;;;;5100292;27;20043;-72
2022/12/14 03:47:28;;;;;;;40.70;20.27;;;-6.50;99.90;;;;;;5089648;27;20035;-73
2022/12/14 03:50:00;;;;;;;44.80;21.23;;;-6.50;99.90;;;;;;5105924;28;20088;-72
2022/12/14 03:52:35;;;;;;;39.93;19.40;;;-6.50;99.90;;;;;;5115115;27;20136;-73
2022/12/14 03:55:28;;;;;;;44.83;21.00;;;-6.60;99.90;;;;;;5105772;27;20044;-71
2022/12/14 03:58:23;;;;;;;37.47;19.05;;;-6.60;99.90;;;;;;5089450;27;20043;-72
2022/12/14 04:00:58;;;;;;;37.13;18.93;;;-6.60;99.90;;;;;;5109970;27;20118;-72
2022/12/14 04:03:51;;;;;;;41.57;20.83;;;-6.60;99.90;;;;;;5110397;27;20047;-72
2022/12/14 04:06:35;;;;;;;40.30;19.33;;;-6.70;99.90;;;;;;5110843;27;20071;-73
2022/12/14 04:09:29;;;;;;;38.93;19.80;;;-6.80;99.90;;;;;;5099065;27;20081;-72
2022/12/14 04:20:42;;;;;;;42.90;20.73;;;-6.80;99.90;;;;;;5105895;27;20122;-72
2022/12/14 04:26:03;;;;;;;42.33;20.53;;;-6.70;99.90;;;;;;5105953;27;20062;-71
2022/12/14 04:26:15;;;;;;;34.80;18.50;;;-6.80;99.90;;;;;;5102430;27;20102;-72
2022/12/14 04:31:58;;;;;;;40.17;20.63;;;-6.90;99.90;;;;;;5022065;28;20156;-72
2022/12/14 04:34:26;;;;;;;37.87;20.07;;;-6.90;99.90;;;;;;5103184;27;20500;-72
2022/12/14 04:36:59;;;;;;;37.13;19.53;;;-7.00;99.90;;;;;;5105523;27;20031;-72
2022/12/14 04:39:46;;;;;;;36.25;18.60;;;-7.00;99.90;;;;;;5096864;27;20039;-72
2022/12/14 04:42:15;;;;;;;39.70;19.87;;;-7.00;99.90;;;;;;5102809;27;20043;-72
2022/12/14 04:44:47;;;;;;;40.40;20.17;;;-7.00;99.90;;;;;;5099201;28;20046;-72
2022/12/14 04:47:16;;;;;;;41.67;21.15;;;-7.00;99.90;;;;;;5110575;27;20047;-72
2022/12/14 04:50:07;;;;;;;41.17;20.97;;;-7.00;99.90;;;;;;5106675;27;20045;-72
2022/12/14 04:52:39;;;;;;;39.17;19.77;;;-7.00;99.90;;;;;;5098267;27;20446;-71
2022/12/14 04:55:20;;;;;;;35.83;19.30;;;-7.00;99.90;;;;;;5097034;28;20032;-72
2022/12/14 04:57:55;;;;;;;41.17;19.93;;;-7.00;99.90;;;;;;5106749;27;20059;-73
2022/12/14 05:00:21;;;;;;;43.93;20.23;;;-7.00;99.90;;;;;;5130700;27;20117;-71
2022/12/14 05:03:14;;;;;;;44.83;20.10;;;-7.00;99.90;;;;;;5097929;28;20172;-72
2022/12/14 05:05:57;;;;;;;38.58;19.20;;;-7.00;99.90;;;;;;5105587;27;20077;-73
2022/12/14 05:08:59;;;;;;;39.57;19.40;;;-7.00;99.90;;;;;;5105772;27;20103;-71
2022/12/14 05:11:46;;;;;;;40.90;19.97;;;-7.00;99.90;;;;;;5106818;27;20043;-72
2022/12/14 05:14:33;;;;;;;41.87;20.03;;;-7.10;99.90;;;;;;5125785;27;20046;-72
2022/12/14 05:17:00;;;;;;;39.87;19.57;;;-7.10;99.90;;;;;;5113413;27;20039;-72
2022/12/14 05:19:26;;;;;;;37.97;19.03;;;-7.20;99.90;;;;;;5095918;28;20050;-72
2022/12/14 05:21:53;;;;;;;36.77;18.97;;;-7.20;99.90;;;;;;5103147;27;20566;-72
2022/12/14 05:24:18;;;;;;;37.10;19.50;;;-7.20;99.90;;;;;;5112215;27;20054;-72
2022/12/14 05:26:44;;;;;;;41.43;19.20;;;-7.20;99.90;;;;;;5101690;27;20496;-72
2022/12/14 05:29:09;;;;;;;42.53;19.83;;;-7.20;99.90;;;;;;5107887;27;20031;-71
2022/12/14 05:31:35;;;;;;;37.93;19.83;;;-7.20;99.90;;;;;;5115064;27;20088;-72
2022/12/14 05:34:00;;;;;;;42.37;21.33;;;-7.30;99.90;;;;;;5108877;27;20446;-72
2022/12/14 05:36:26;;;;;;;39.63;19.60;;;-7.30;99.90;;;;;;5101191;27;20039;-72
2022/12/14 05:38:51;;;;;;;42.27;19.60;;;-7.20;99.90;;;;;;5111314;27;20039;-72
2022/12/14 05:41:17;;;;;;;39.20;18.73;;;-7.10;99.90;;;;;;5115607;27;20050;-72
2022/12/14 05:43:43;;;;;;;36.87;18.97;;;-7.30;99.90;;;;;;5108550;27;20034;-72
2022/12/14 05:46:12;;;;;;;35.70;19.77;;;-7.40;99.90;;;;;;5108849;27;20035;-72
2022/12/14 05:48:38;;;;;;;39.57;18.93;;;-7.40;99.90;;;;;;5105660;27;20069;-72
2022/12/14 05:51:09;;;;;;;42.53;20.40;;;-7.50;99.90;;;;;;5106353;27;20027;-73
2022/12/14 05:53:35;;;;;;;44.13;21.30;;;-7.40;99.90;;;;;;5090286;27;20045;-72
2022/12/14 05:56:02;;;;;;;39.07;19.40;;;-7.40;99.90;;;;;;5105191;27;20043;-72
2022/12/14 05:58:27;;;;;;;42.80;19.33;;;-7.40;99.90;;;;;;5099923;27;20046;-72
2022/12/14 06:00:53;;;;;;;40.20;19.50;;;-7.40;99.90;;;;;;5103613;27;20126;-74
2022/12/14 06:03:19;;;;;;;39.37;19.10;;;-7.40;99.90;;;;;;5110392;27;20099;-72
2022/12/14 06:05:44;;;;;;;34.50;17.93;;;-7.40;99.90;;;;;;5094130;27;20122;-73
2022/12/14 06:08:10;;;;;;;41.73;19.27;;;-7.40;99.90;;;;;;5105720;27;20143;-72
2022/12/14 06:10:35;;;;;;;37.90;19.33;;;-7.40;99.90;;;;;;5111149;27;20031;-72
2022/12/14 06:13:01;;;;;;;38.87;19.73;;;-7.40;99.90;;;;;;5099936;27;20039;-72
2022/12/14 06:15:27;;;;;;;38.03;19.60;;;-7.40;99.90;;;;;;5103973;28;20084;-72
2022/12/14 06:17:53;;;;;;;37.07;18.93;;;-7.40;99.90;;;;;;5112127;27;20042;-72
2022/12/14 06:20:18;;;;;;;38.30;18.67;;;-7.50;99.90;;;;;;5102127;27;20434;-72
2022/12/14 06:22:44;;;;;;;37.13;18.57;;;-7.50;99.90;;;;;;5112049;27;20035;-72
2022/12/14 06:25:09;;;;;;;40.43;19.77;;;-7.50;99.90;;;;;;5117431;28;20423;-72
2022/12/14 06:27:35;;;;;;;40.77;19.27;;;-7.60;99.90;;;;;;5130845;27;20515;-72
2022/12/14 06:30:00;;;;;;;39.87;20.40;;;-7.60;99.90;;;;;;5100716;28;20641;-72
2022/12/14 06:32:26;;;;;;;38.33;19.60;;;-7.70;99.90;;;;;;5103291;28;20038;-72
2022/12/14 06:34:51;;;;;;;42.67;19.67;;;-7.70;99.90;;;;;;5108631;28;20035;-72
2022/12/14 06:37:17;;;;;;;42.03;20.80;;;-7.70;99.90;;;;;;5095614;28;20052;-72
2022/12/14 06:39:43;;;;;;;39.53;20.10;;;-7.70;99.90;;;;;;5096990;28;20031;-72
2022/12/14 06:42:09;;;;;;;42.20;20.27;;;-7.70;99.90;;;;;;5104410;28;20036;-72
2022/12/14 06:44:34;;;;;;;44.20;20.27;;;-7.70;99.90;;;;;;5102413;28;20035;-72
2022/12/14 06:47:00;;;;;;;39.83;19.57;;;-7.70;99.90;;;;;;5111733;28;20037;-71
2022/12/14 06:49:25;;;;;;;43.43;19.77;;;-7.70;99.90;;;;;;5090855;28;20040;-73
2022/12/14 06:51:51;;;;;;;39.07;18.57;;;-7.70;99.90;;;;;;5100143;28;20032;-72
2022/12/14 06:54:17;;;;;;;39.40;19.27;;;-7.70;99.90;;;;;;5093652;28;20043;-73
2022/12/14 06:56:45;;;;;;;43.47;19.30;;;-7.70;99.90;;;;;;5093112;28;20063;-72
2022/12/14 06:59:12;;;;;;;40.67;19.77;;;-7.70;99.90;;;;;;5092811;28;20043;-72
2022/12/14 07:01:38;;;;;;;38.90;19.77;;;-7.70;99.90;;;;;;5093360;28;20454;-73
2022/12/14 07:04:05;;;;;;;38.73;18.10;;;-7.70;99.90;;;;;;5092215;28;20055;-72
2022/12/14 07:06:33;;;;;;;40.90;19.20;;;-7.70;99.90;;;;;;5091958;28;20040;-72
2022/12/14 07:08:59;;;;;;;39.10;18.73;;;-7.70;99.90;;;;;;5091720;28;20091;-72
2022/12/14 07:11:26;;;;;;;36.20;18.77;;;-7.70;99.90;;;;;;5093234;28;20434;-72
2022/12/14 07:13:53;;;;;;;37.97;19.33;;;-7.80;99.90;;;;;;5093096;28;20032;-72
2022/12/14 07:16:21;;;;;;;41.57;20.27;;;-7.80;99.90;;;;;;5093111;28;20039;-72
2022/12/14 07:18:47;;;;;;;39.47;19.57;;;-7.80;99.90;;;;;;5091375;28;20035;-72
2022/12/14 07:21:15;;;;;;;40.90;19.83;;;-7.90;99.90;;;;;;5091636;28;20032;-72
2022/12/14 07:23:43;;;;;;;39.90;19.63;;;-7.90;99.90;;;;;;5099591;27;20080;-72
2022/12/14 07:26:14;;;;;;;38.30;19.50;;;-7.90;99.90;;;;;;5112895;27;20070;-72
2022/12/14 07:28:41;;;;;;;43.63;21.43;;;-7.90;99.90;;;;;;5115550;27;20061;-72
2022/12/14 07:31:11;;;;;;;39.10;19.30;;;-7.90;99.90;;;;;;5117049;27;20088;-72
2022/12/14 07:33:37;;;;;;;38.57;17.90;;;-7.90;99.90;;;;;;5098674;28;20039;-72
2022/12/14 07:36:14;;;;;;;39.83;18.53;;;-7.90;99.90;;;;;;5096638;28;20032;-72
2022/12/14 07:38:41;;;;;;;39.27;19.63;;;-7.80;99.90;;;;;;5096412;28;20051;-72
2022/12/14 07:41:13;;;;;;;43.07;19.77;;;-7.80;99.90;;;;;;5079785;28;20457;-72
2022/12/14 07:43:40;;;;;;;41.53;19.77;;;-7.80;99.90;;;;;;5096648;28;20036;-73
2022/12/14 07:46:09;;;;;;;41.23;20.87;;;-7.80;99.90;;;;;;5097056;27;20408;-73
2022/12/14 07:48:36;;;;;;;44.73;20.93;;;-7.80;99.90;;;;;;5095870;28;20035;-72
2022/12/14 07:51:07;;;;;;;39.53;19.10;;;-7.80;99.90;;;;;;5095540;28;20031;-72
2022/12/14 07:53:33;;;;;;;40.43;20.77;;;-7.80;99.90;;;;;;5095794;28;20031;-72
2022/12/14 07:56:01;;;;;;;37.47;18.77;;;-7.80;99.90;;;;;;5116087;27;20070;-72
2022/12/14 07:58:26;;;;;;;43.20;19.00;;;-7.80;99.90;;;;;;5119740;27;20392;-72
2022/12/14 08:00:52;;;;;;;39.50;18.17;;;-7.80;99.90;;;;;;5115650;27;20046;-72
2022/12/14 08:03:17;;;;;;;41.27;18.63;;;-7.90;99.90;;;;;;5116599;27;20108;-72
2022/12/14 08:05:43;;;;;;;36.17;17.97;;;-7.80;99.90;;;;;;5103553;28;20566;-72
2022/12/14 08:08:08;;;;;;;43.17;19.03;;;-7.90;99.90;;;;;;5095870;28;20118;-72
2022/12/14 08:10:34;;;;;;;41.67;20.17;;;-7.80;99.90;;;;;;5095966;28;20046;-73
2022/12/14 08:12:59;;;;;;;42.33;19.70;;;-7.80;99.90;;;;;;5095880;28;20080;-72
2022/12/14 08:15:25;;;;;;;43.90;20.57;;;-7.80;99.90;;;;;;5095847;28;20055;-72
2022/12/14 08:17:50;;;;;;;41.27;19.80;;;-7.80;99.90;;;;;;5095443;28;20104;-72
2022/12/14 08:20:16;;;;;;;38.50;19.23;;;-7.80;99.90;;;;;;5101560;27;20656;-72
2022/12/14 08:22:41;;;;;;;38.37;19.33;;;-7.80;99.90;;;;;;5099884;27;20053;-72
2022/12/14 08:25:07;;;;;;;44.47;19.50;;;-7.80;99.90;;;;;;5095482;28;20070;-72
2022/12/14 08:27:33;;;;;;;38.47;19.10;;;-7.70;99.90;;;;;;5094704;28;20048;-72
2022/12/14 08:29:58;;;;;;;42.33;20.10;;;-7.70;99.90;;;;;;5095088;28;20043;-72
2022/12/14 08:32:24;;;;;;;41.13;18.97;;;-7.60;99.90;;;;;;5095451;28;20373;-72
2022/12/14 08:34:49;;;;;;;41.00;18.87;;;-7.60;99.90;;;;;;5095106;28;20036;-72
2022/12/14 08:37:15;;;;;;;41.27;19.23;;;-7.60;99.90;;;;;;5095183;28;20089;-73
2022/12/14 08:39:40;;;;;;;45.00;19.67;;;-7.60;99.90;;;;;;5093837;28;20067;-72
2022/12/14 08:42:06;;;;;;;37.67;18.27;;;-7.40;99.90;;;;;;5094998;28;20130;-72
2022/12/14 08:44:31;;;;;;;41.27;18.33;;;-7.50;99.90;;;;;;5097725;27;20031;-72
2022/12/14 08:46:57;;;;;;;39.70;18.90;;;-7.40;99.90;;;;;;5104487;28;20047;-73
2022/12/14 08:49:22;;;;;;;39.17;19.23;;;-7.40;99.90;;;;;;5094251;28;20031;-73
2022/12/14 08:51:48;;;;;;;38.07;19.90;;;-7.20;99.90;;;;;;5078265;28;20110;-72
2022/12/14 08:54:13;;;;;;;45.10;21.07;;;-7.40;99.90;;;;;;5094921;28;20052;-73
2022/12/14 08:56:39;;;;;;;43.73;20.40;;;-7.40;99.90;;;;;;5092884;28;20454;-73
2022/12/14 08:59:04;;;;;;;43.53;20.70;;;-7.20;99.90;;;;;;5094890;28;20047;-73
2022/12/14 09:01:31;;;;;;;42.63;19.73;;;-7.20;99.90;;;;;;5093580;28;20051;-72
2022/12/14 09:04:04;;;;;;;41.23;20.17;;;-7.30;99.90;;;;;;5094129;28;20062;-73
2022/12/14 09:06:33;;;;;;;40.60;20.15;;;-7.20;99.90;;;;;;5094659;28;20043;-73
2022/12/14 09:08:58;;;;;;;41.67;19.13;;;-7.20;99.90;;;;;;5112512;28;20390;-73
2022/12/14 09:11:24;;;;;;;42.23;19.73;;;-7.10;99.90;;;;;;5108102;27;20046;-72
2022/12/14 09:13:53;;;;;;;38.97;19.13;;;-7.10;99.90;;;;;;5098719;27;20038;-74
2022/12/14 09:16:20;;;;;;;42.20;19.87;;;-7.00;99.90;;;;;;5105517;28;20036;-73
2022/12/14 09:18:47;;;;;;;46.57;21.90;;;-7.00;99.90;;;;;;5094452;28;20523;-73
2022/12/14 09:21:14;;;;;;;46.67;21.60;;;-6.90;99.90;;;;;;5099606;27;20511;-73
2022/12/14 09:23:40;;;;;;;47.87;21.97;;;-6.80;99.90;;;;;;5108341;28;20062;-73
2022/12/14 09:26:10;;;;;;;47.87;21.37;;;-6.80;99.90;;;;;;5101542;28;20039;-73
2022/12/14 09:28:38;;;;;;;50.47;21.40;;;-6.70;99.90;;;;;;5092735;28;20042;-73
2022/12/14 09:31:07;;;;;;;47.90;21.23;;;-6.50;99.90;;;;;;5097963;27;20031;-73
2022/12/14 09:33:33;;;;;;;44.83;21.13;;;-6.50;99.90;;;;;;5110402;27;20058;-73
2022/12/14 09:36:11;;;;;;;45.43;20.77;;;-6.40;99.90;;;;;;5094544;28;20070;-73
2022/12/14 09:38:38;;;;;;;43.27;20.20;;;-6.40;99.90;;;;;;5110401;27;20035;-73
2022/12/14 09:41:07;;;;;;;43.40;20.57;;;-6.30;99.90;;;;;;5100882;27;20404;-73
2022/12/14 09:43:35;;;;;;;45.47;20.70;;;-6.20;99.90;;;;;;5103284;28;20036;-73
2022/12/14 09:46:10;;;;;;;44.73;20.90;;;-6.20;99.90;;;;;;5103383;27;20400;-74
2022/12/14 09:48:36;;;;;;;45.23;20.80;;;-6.10;99.90;;;;;;5093295;28;20100;-73
2022/12/14 09:51:02;;;;;;;41.37;19.77;;;-6.00;99.90;;;;;;5093114;28;20040;-73
2022/12/14 09:53:28;;;;;;;41.97;20.73;;;-5.90;99.90;;;;;;5093504;28;20070;-72
2022/12/14 09:55:55;;;;;;;39.97;18.63;;;-5.90;99.90;;;;;;5093313;28;20042;-73
2022/12/14 09:58:22;;;;;;;40.20;19.17;;;-5.80;99.90;;;;;;5092811;28;20035;-73
2022/12/14 10:01:21;;;;;;;38.47;18.77;;;-5.70;99.90;;;;;;5093179;28;20051;-74
2022/12/14 10:04:05;;;;;;;40.00;19.23;;;-5.50;99.90;;;;;;5093330;28;20047;-74
2022/12/14 10:06:50;;;;;;;39.30;18.67;;;-4.80;99.90;;;;;;5093480;28;20174;-74
2022/12/14 10:09:28;;;;;;;42.97;20.00;;;-5.30;99.90;;;;;;5098579;27;20054;-74
2022/12/14 10:12:18;;;;;;;45.20;19.77;;;-5.20;99.90;;;;;;5101362;28;20541;-74
2022/12/14 10:14:57;;;;;;;39.07;19.43;;;-5.10;99.90;;;;;;5093360;28;20035;-75
2022/12/14 10:17:40;;;;;;;37.80;19.17;;;-5.10;99.90;;;;;;5076808;28;20088;-74
2022/12/14 10:20:10;;;;;;;40.00;19.37;;;-5.00;99.90;;;;;;5107674;28;20092;-74
2022/12/14 10:22:41;;;;;;;41.70;20.23;;;-4.90;99.90;;;;;;5102957;27;20057;-74
2022/12/14 10:25:18;;;;;;;36.23;18.37;;;-4.80;99.90;;;;;;5099350;28;20505;-74
2022/12/14 10:27:50;;;;;;;41.27;20.57;;;-4.80;99.90;;;;;;5101432;27;20082;-74
2022/12/14 10:30:20;;;;;;;39.63;20.23;;;-4.60;99.90;;;;;;5095650;27;20527;-74
2022/12/14 10:33:02;;;;;;;38.70;20.27;;;-4.60;99.90;;;;;;5103308;28;20114;-74
2022/12/14 10:35:41;;;;;;;41.90;20.93;;;-4.50;99.90;;;;;;5095148;28;20049;-74
2022/12/14 10:38:20;;;;;;;39.10;19.97;;;-4.40;99.90;;;;;;5093180;28;20043;-74
2022/12/14 10:40:48;;;;;;;38.60;19.70;;;-4.40;99.90;;;;;;5100395;28;20400;-75
2022/12/14 10:43:42;;;;;;;34.87;17.23;;;-4.30;99.90;;;;;;5100057;28;20031;-73
2022/12/14 10:46:24;;;;;;;39.15;18.58;;;-4.20;99.90;;;;;;5093008;28;20070;-75
2022/12/14 10:49:00;;;;;;;36.00;17.13;;;-4.20;99.90;;;;;;5107669;28;20066;-74
2022/12/14 10:52:02;;;;;;;38.23;18.90;;;-4.10;99.90;;;;;;5104875;28;20081;-74
2022/12/14 10:54:32;;;;;;;37.70;18.13;;;-4.00;99.90;;;;;;5109433;28;20120;-74
2022/12/14 10:56:58;;;;;;;35.90;17.80;;;-4.00;99.90;;;;;;5103687;28;20038;-74
2022/12/14 10:59:32;;;;;;;34.60;17.30;;;-3.90;99.90;;;;;;5103382;28;20035;-75
2022/12/14 11:02:08;;;;;;;32.03;17.35;;;-3.80;99.90;;;;;;5106866;27;20139;-75
2022/12/14 11:04:38;;;;;;;30.77;16.03;;;-3.70;99.90;;;;;;5107564;27;20038;-75
2022/12/14 11:07:10;;;;;;;33.70;17.07;;;-3.60;99.90;;;;;;5087360;27;20091;-75
2022/12/14 11:09:37;;;;;;;31.90;16.30;;;-3.60;99.90;;;;;;5106139;27;20043;-74
2022/12/14 11:12:11;;;;;;;34.20;16.97;;;-3.40;99.90;;;;;;5108848;27;20039;-74
2022/12/14 11:14:40;;;;;;;32.70;16.17;;;-3.40;99.90;;;;;;5107029;27;20031;-74
2022/12/14 11:17:28;;;;;;;29.80;16.00;;;-3.40;99.90;;;;;;5097481;27;20066;-74
2022/12/14 11:20:05;;;;;;;29.73;15.37;;;-3.30;99.90;;;;;;5105632;28;20040;-74
2022/12/14 11:22:48;;;;;;;28.60;15.10;;;-3.20;99.90;;;;;;5106748;27;20047;-73
2022/12/14 11:25:34;;;;;;;34.67;15.53;;;-3.20;99.90;;;;;;5108471;27;20039;-73
2022/12/14 11:28:25;;;;;;;31.87;14.67;;;-3.20;99.90;;;;;;5109876;27;20356;-73
2022/12/14 11:31:01;;;;;;;30.47;14.37;;;-3.10;99.90;;;;;;5097029;28;20108;-73
2022/12/14 11:33:33;;;;;;;29.73;15.83;;;-3.10;99.90;;;;;;5112037;27;20500;-73
2022/12/14 11:35:59;;;;;;;30.03;16.13;;;-3.00;99.90;;;;;;5112225;27;20031;-73
2022/12/14 11:38:26;;;;;;;30.23;15.87;;;-2.90;99.90;;;;;;5113289;27;20143;-73
2022/12/14 11:40:52;;;;;;;31.37;15.87;;;-2.80;99.90;;;;;;5112109;28;20039;-73
2022/12/14 11:43:28;;;;;;;29.10;15.67;;;-2.70;99.90;;;;;;5086774;27;20039;-73
2022/12/14 11:45:56;;;;;;;30.33;16.27;;;-2.60;99.90;;;;;;5102709;28;20065;-73
2022/12/14 11:48:24;;;;;;;28.13;15.40;;;-2.50;99.90;;;;;;5096425;28;20370;-74
2022/12/14 11:50:52;;;;;;;32.23;15.63;;;-2.40;99.90;;;;;;5094306;27;20043;-73
2022/12/14 11:53:19;;;;;;;31.83;15.90;;;-2.30;99.90;;;;;;5096435;28;20424;-74
2022/12/14 11:55:52;;;;;;;29.23;15.83;;;-2.20;99.90;;;;;;5095741;28;20137;-73
2022/12/14 11:58:24;;;;;;;32.10;15.55;;;-2.10;99.90;;;;;;5096225;28;20404;-74
2022/12/14 12:01:19;;;;;;;33.50;17.17;;;-2.10;99.90;;;;;;5095714;28;20500;-75
2022/12/14 12:03:49;;;;;;;29.17;15.90;;;-2.00;99.90;;;;;;5092544;27;20051;-75
2022/12/14 12:06:22;;;;;;;28.47;15.93;;;-1.90;99.90;;;;;;5112381;28;20039;-75
2022/12/14 12:09:00;;;;;;;25.70;14.53;;;-1.80;99.90;;;;;;5096291;28;20079;-75
2022/12/14 12:11:29;;;;;;;25.40;14.30;;;-1.70;99.90;;;;;;5096093;28;20046;-75
2022/12/14 12:14:02;;;;;;;23.50;13.07;;;-1.60;99.90;;;;;;5094907;28;20036;-75
2022/12/14 12:16:31;;;;;;;22.15;12.52;;;-1.50;99.90;;;;;;5095816;28;20045;-75
2022/12/14 12:19:03;;;;;;;25.40;12.90;;;-1.40;99.90;;;;;;5096014;28;20070;-76
2022/12/14 12:21:30;;;;;;;26.93;14.10;;;-1.20;99.90;;;;;;5095739;28;20039;-75
2022/12/14 12:24:36;;;;;;;25.50;13.77;;;-1.00;99.90;;;;;;5095869;28;20031;-76
2022/12/14 12:27:10;;;;;;;31.43;15.47;;;-0.90;99.90;;;;;;5095897;28;20040;-76
2022/12/14 12:29:56;;;;;;;28.03;14.20;;;-0.70;99.90;;;;;;5095496;28;20043;-76
2022/12/14 12:32:38;;;;;;;25.43;13.87;;;-0.70;99.90;;;;;;5095587;28;20043;-76
2022/12/14 12:35:17;;;;;;;26.23;14.27;;;-0.50;99.90;;;;;;5095178;28;20051;-76
2022/12/14 12:37:47;;;;;;;24.53;13.53;;;-0.30;99.90;;;;;;5106927;27;20122;-76
2022/12/14 12:40:33;;;;;;;25.87;13.53;;;-0.10;99.90;;;;;;5114903;27;20046;-76
2022/12/14 12:43:03;;;;;;;25.13;13.83;;;0.20;99.90;;;;;;5113751;27;20129;-76
2022/12/14 12:45:38;;;;;;;24.90;13.63;;;0.50;99.90;;;;;;5097691;27;20051;-76
2022/12/14 12:48:14;;;;;;;24.87;12.90;;;0.90;99.90;;;;;;5115661;27;20193;-75
2022/12/14 12:50:46;;;;;;;26.03;13.93;;;1.30;99.90;;;;;;5114842;27;20139;-76
2022/12/14 12:53:20;;;;;;;24.17;13.00;;;1.60;99.90;;;;;;5115197;27;20389;-76
2022/12/14 12:55:52;;;;;;;24.85;13.68;;;1.80;99.90;;;;;;5115684;27;20033;-76
2022/12/14 12:58:27;;;;;;;25.03;13.67;;;2.20;99.90;;;;;;5115307;27;20087;-76
2022/12/14 13:00:57;;;;;;;19.83;11.60;;;2.40;99.90;;;;;;5103411;28;20036;-76